Time;durP1;ratioP1;P1;durP2;ratioP2;P2;SDS_P1;SDS_P2;PMS_P1;PMS_P2;Temp;Humidity;BMP_temperature;BMP_pressure;BME280_temperature;BME280_humidity;BME280_pressure;Samples;Min_cycle;Max_cycle;Signal;HPM_P1;HPM_P2
2022/06/25 00:01:30;;;;;;;3.33;2.40;;;17.60;99.90;;;-144.05;80.14;125687.94;6172663;23;20016;-91
2022/06/25 00:03:57;;;;;;;3.33;1.98;;;17.50;99.90;;;-144.05;80.07;125687.94;6203420;23;20001;-91
2022/06/25 00:06:23;;;;;;;4.78;2.45;;;17.50;99.90;;;-144.05;79.83;125687.94;6187344;23;20012;-91
2022/06/25 00:08:50;;;;;;;3.72;2.33;;;17.50;99.90;;;-144.05;80.23;125687.94;6211953;23;20028;-90
2022/06/25 00:14:11;;;;;;;3.38;2.15;;;17.50;99.90;;;-144.05;80.70;125687.94;6192880;23;20043;-89
2022/06/25 00:16:38;;;;;;;2.92;2.17;;;17.40;99.90;;;-144.05;80.32;125687.94;6166536;23;20004;-91
2022/06/25 00:19:05;;;;;;;3.92;2.08;;;17.40;99.90;;;-144.05;80.17;125687.94;6166380;23;20005;-90
2022/06/25 00:21:31;;;;;;;7.85;2.33;;;17.30;99.90;;;-144.05;80.31;125687.94;6164610;23;20032;-89
2022/06/25 00:23:58;;;;;;;3.90;2.45;;;17.40;99.90;;;-144.05;80.29;125687.94;6165254;23;20344;-88
2022/06/25 00:26:24;;;;;;;4.97;2.10;;;17.40;99.90;;;-144.05;79.99;125687.94;6189269;23;20032;-89
2022/06/25 00:28:50;;;;;;;3.30;2.03;;;17.30;99.90;;;-144.05;79.83;125687.94;6165615;23;20013;-91
2022/06/25 00:31:16;;;;;;;5.38;2.38;;;17.30;99.90;;;-144.05;79.80;125687.94;6163899;23;20009;-90
2022/06/25 00:33:43;;;;;;;3.28;1.98;;;17.30;99.90;;;-144.05;79.89;125687.94;6164441;23;20009;-88
2022/06/25 00:36:09;;;;;;;3.25;2.20;;;17.30;99.90;;;-144.05;79.69;125687.94;6165358;23;20335;-91
2022/06/25 00:38:35;;;;;;;2.70;1.70;;;17.30;99.90;;;-144.05;80.07;125687.94;6165255;23;20012;-89
2022/06/25 00:41:03;;;;;;;4.25;1.88;;;17.20;99.90;;;-144.05;80.14;125687.94;6164014;23;20001;-89
2022/06/25 00:43:30;;;;;;;2.72;2.10;;;17.20;99.90;;;-144.05;80.05;125687.94;6162179;23;20066;-88
2022/06/25 00:45:56;;;;;;;4.45;2.17;;;17.20;99.90;;;-144.05;80.28;125687.94;6161745;23;20347;-90
2022/06/25 00:48:22;;;;;;;2.75;1.80;;;17.20;99.90;;;-144.05;80.24;125687.94;6186934;23;20009;-88
2022/06/25 00:50:48;;;;;;;6.32;1.83;;;17.10;99.90;;;-144.05;80.11;125687.94;6162231;23;20013;-91
2022/06/25 00:53:17;;;;;;;2.17;1.98;;;17.10;99.90;;;-144.05;80.17;125687.94;6161840;23;20060;-88
2022/06/25 00:55:48;;;;;;;5.07;2.33;;;17.10;99.90;;;-144.05;79.98;125687.94;6161861;23;20005;-90
2022/06/25 00:58:20;;;;;;;4.55;2.08;;;17.10;99.90;;;-144.05;80.17;125687.94;6186448;23;20001;-88
2022/06/25 01:00:47;;;;;;;3.78;2.38;;;17.10;99.90;;;-144.05;80.20;125687.94;6162267;23;20005;-89
2022/06/25 01:03:14;;;;;;;2.47;2.08;;;17.00;99.90;;;-144.05;80.40;125687.94;6164969;23;20009;-89
2022/06/25 01:05:40;;;;;;;4.57;1.83;;;16.90;99.90;;;-144.05;80.28;125687.94;6162027;23;20446;-89
2022/06/25 01:08:06;;;;;;;2.95;2.17;;;16.90;99.90;;;-144.05;80.46;125687.94;6186436;23;20005;-87
2022/06/25 01:10:33;;;;;;;1.98;1.70;;;16.90;99.90;;;-144.05;80.46;125687.94;6162939;23;20454;-90
2022/06/25 01:12:58;;;;;;;3.78;2.08;;;16.90;99.90;;;-144.05;80.63;125687.94;6187232;23;20013;-90
2022/06/25 01:15:25;;;;;;;5.40;1.85;;;16.80;99.90;;;-144.05;80.41;125687.94;6162905;23;20407;-89
2022/06/25 01:17:52;;;;;;;3.67;2.00;;;16.80;99.90;;;-144.05;80.61;125687.94;6162452;23;20423;-88
2022/06/25 01:20:25;;;;;;;10.38;2.45;;;16.80;99.90;;;-144.05;80.39;125687.94;6162819;23;20058;-90
2022/06/25 01:22:52;;;;;;;2.78;2.20;;;16.80;99.90;;;-144.05;80.73;125687.94;6163114;23;20011;-88
2022/06/25 01:25:19;;;;;;;4.47;2.33;;;16.80;99.90;;;-144.05;80.96;125687.94;6172826;23;20060;-88
2022/06/25 01:27:47;;;;;;;3.03;2.22;;;16.80;99.90;;;-144.05;80.99;125687.94;6170223;23;20020;-87
2022/06/25 01:30:15;;;;;;;2.70;1.80;;;16.80;99.90;;;-144.05;81.12;125687.94;6162936;23;20511;-88
2022/06/25 01:32:41;;;;;;;4.95;2.30;;;16.80;99.90;;;-144.05;81.54;125687.94;6163148;23;20564;-89
2022/06/25 01:35:09;;;;;;;5.78;2.55;;;16.90;99.90;;;-144.05;81.10;125687.94;6163737;23;20029;-90
2022/06/25 01:37:37;;;;;;;4.13;2.00;;;16.90;99.90;;;-144.05;81.29;125687.94;6162947;23;20084;-88
2022/06/25 01:40:04;;;;;;;3.10;1.95;;;16.90;99.90;;;-144.05;81.27;125687.94;6163137;23;20118;-88
2022/06/25 01:45:15;;;;;;;5.68;2.40;;;16.90;99.90;;;-144.05;81.71;125687.94;6189520;23;20530;-91
2022/06/25 01:47:41;;;;;;;4.13;2.45;;;16.90;99.90;;;-144.05;81.40;125687.94;6162551;23;20040;-89
2022/06/25 01:50:10;;;;;;;5.85;2.58;;;16.80;99.90;;;-144.05;81.80;125687.94;6186476;23;20020;-89
2022/06/25 01:52:36;;;;;;;3.22;2.22;;;16.80;99.90;;;-144.05;81.92;125687.94;6187482;23;20005;-88
2022/06/25 01:55:03;;;;;;;4.10;2.67;;;16.80;99.90;;;-144.05;82.30;125687.94;6165619;23;20032;-90
2022/06/25 01:57:30;;;;;;;3.03;2.30;;;16.70;99.90;;;-144.05;82.68;125687.94;6182984;23;20020;-90
2022/06/25 01:59:56;;;;;;;4.20;2.42;;;16.70;99.90;;;-144.05;83.32;125687.94;6185584;23;20044;-91
2022/06/25 02:02:21;;;;;;;2.90;2.40;;;16.70;99.90;;;-144.05;83.13;125687.94;6185305;23;20020;-89
2022/06/25 02:04:47;;;;;;;5.47;2.78;;;16.70;99.90;;;-144.05;82.99;125687.94;6168074;23;20447;-90
2022/06/25 02:07:13;;;;;;;6.10;2.65;;;16.80;99.90;;;-144.05;83.18;125687.94;6161980;23;20062;-90
2022/06/25 02:09:39;;;;;;;6.72;2.78;;;16.70;99.90;;;-144.05;83.08;125687.94;6187815;23;20009;-91
2022/06/25 02:12:07;;;;;;;4.38;2.65;;;16.70;99.90;;;-144.05;83.28;125687.94;6162045;23;20009;-90
2022/06/25 02:14:33;;;;;;;4.85;2.80;;;16.70;99.90;;;-144.05;83.51;125687.94;6162482;23;20036;-88
2022/06/25 02:17:00;;;;;;;3.55;2.78;;;16.70;99.90;;;-144.05;83.47;125687.94;6187297;23;20005;-91
2022/06/25 02:19:26;;;;;;;6.60;2.47;;;16.70;99.90;;;-144.05;83.50;125687.94;6163944;23;20016;-90
2022/06/25 02:21:51;;;;;;;9.40;2.95;;;16.70;99.90;;;-144.05;83.13;125687.94;6192320;23;20009;-90
2022/06/25 02:24:17;;;;;;;3.95;2.65;;;16.80;99.90;;;-144.05;83.25;125687.94;6188123;23;20327;-88
2022/06/25 02:26:43;;;;;;;3.60;2.83;;;16.70;99.90;;;-144.05;83.08;125687.94;6162265;23;20005;-89
2022/06/25 02:29:09;;;;;;;4.68;2.53;;;16.70;99.90;;;-144.05;82.94;125687.94;6162170;23;20040;-89
2022/06/25 02:31:35;;;;;;;3.85;2.80;;;16.70;99.90;;;-144.05;83.58;125687.94;6162715;23;20033;-89
2022/06/25 02:34:01;;;;;;;3.92;2.47;;;16.70;99.90;;;-144.05;83.71;125687.94;6187595;23;20320;-89
2022/06/25 02:36:27;;;;;;;6.55;2.42;;;16.70;99.90;;;-144.05;83.86;125687.94;6187537;23;20146;-89
2022/06/25 02:38:53;;;;;;;3.22;2.35;;;16.70;99.90;;;-144.05;83.65;125687.94;6162477;23;20435;-90
2022/06/25 02:41:20;;;;;;;3.13;2.50;;;16.70;99.90;;;-144.05;83.49;125687.94;6162141;23;20055;-89
2022/06/25 02:43:47;;;;;;;3.60;2.55;;;16.70;99.90;;;-144.05;83.22;125687.94;6162153;23;20043;-89
2022/06/25 02:46:13;;;;;;;3.40;2.10;;;16.70;99.90;;;-144.05;83.30;125687.94;6161743;23;20036;-89
2022/06/25 02:48:39;;;;;;;6.60;2.67;;;16.60;99.90;;;-144.05;83.79;125687.94;6161805;23;20012;-89
2022/06/25 02:51:05;;;;;;;3.28;2.45;;;16.70;99.90;;;-144.05;83.57;125687.94;6163344;23;20435;-90
2022/06/25 02:53:31;;;;;;;5.50;2.67;;;16.60;99.90;;;-144.05;83.59;125687.94;6167909;23;20020;-88
2022/06/25 02:58:55;;;;;;;3.75;2.58;;;16.70;99.90;;;-144.05;83.31;125687.94;6196762;23;20020;-90
2022/06/25 03:01:23;;;;;;;3.70;2.35;;;16.60;99.90;;;-144.05;83.22;125687.94;6178537;23;20096;-90
2022/06/25 03:03:52;;;;;;;7.78;2.80;;;16.60;99.90;;;-144.05;83.47;125687.94;6181703;23;20009;-88
2022/06/25 03:06:18;;;;;;;3.47;2.97;;;16.60;99.90;;;-144.05;83.45;125687.94;6208691;23;20009;-91
2022/06/25 03:08:46;;;;;;;4.05;2.83;;;16.60;99.90;;;-144.05;83.38;125687.94;6209697;23;20014;-89
2022/06/25 03:11:13;;;;;;;5.55;2.85;;;16.60;99.90;;;-144.05;83.27;125687.94;6185430;23;20079;-87
2022/06/25 03:13:40;;;;;;;3.55;2.63;;;16.60;99.90;;;-144.05;83.67;125687.94;6206473;23;20009;-88
2022/06/25 03:16:08;;;;;;;4.10;2.72;;;16.60;99.90;;;-144.05;83.09;125687.94;6183451;23;20056;-88
2022/06/25 03:18:36;;;;;;;3.53;2.53;;;16.60;99.90;;;-144.05;83.20;125687.94;6186191;23;20005;-92
2022/06/25 03:21:03;;;;;;;3.78;2.92;;;16.60;99.90;;;-144.05;82.93;125687.94;6186141;23;20061;-92
2022/06/25 03:23:30;;;;;;;2.80;2.33;;;16.60;99.90;;;-144.05;82.84;125687.94;6210917;23;19996;-90
2022/06/25 03:25:56;;;;;;;3.95;2.60;;;16.60;99.90;;;-144.05;82.77;125687.94;6185961;23;20028;-89
2022/06/25 03:28:22;;;;;;;2.85;2.60;;;16.70;99.90;;;-144.05;82.89;125687.94;6185054;23;20009;-89
2022/06/25 03:30:48;;;;;;;5.38;2.90;;;16.60;99.90;;;-144.05;83.19;125687.94;6176952;23;20008;-89
2022/06/25 03:33:15;;;;;;;3.95;3.00;;;16.60;99.90;;;-144.05;82.79;125687.94;6186080;23;20135;-89
2022/06/25 03:35:41;;;;;;;4.88;3.00;;;16.60;99.90;;;-144.05;82.94;125687.94;6206506;23;20028;-87
2022/06/25 03:38:08;;;;;;;6.05;2.83;;;16.60;99.90;;;-144.05;83.00;125687.94;6186035;23;20001;-90
2022/06/25 03:40:34;;;;;;;2.25;2.05;;;16.60;99.90;;;-144.05;83.38;125687.94;6198836;23;20093;-90
2022/06/25 03:43:00;;;;;;;4.53;2.50;;;16.60;99.90;;;-144.05;83.24;125687.94;6170593;23;20013;-89
2022/06/25 03:45:27;;;;;;;7.72;2.75;;;16.60;99.90;;;-144.05;82.80;125687.94;6167479;23;20052;-87
2022/06/25 03:47:54;;;;;;;5.10;3.08;;;16.60;99.90;;;-144.05;83.29;125687.94;6166309;23;20058;-90
2022/06/25 03:50:21;;;;;;;4.65;2.30;;;16.60;99.90;;;-144.05;83.54;125687.94;6165306;23;20009;-89
2022/06/25 03:52:50;;;;;;;2.88;2.40;;;16.60;99.90;;;-144.05;83.36;125687.94;6163914;23;20019;-87
2022/06/25 03:55:17;;;;;;;2.78;2.42;;;16.70;99.90;;;-144.05;83.10;125687.94;6164291;23;20032;-90
2022/06/25 03:57:43;;;;;;;7.03;2.50;;;16.70;99.90;;;-144.05;82.84;125687.94;6163320;23;20028;-90
2022/06/25 04:00:12;;;;;;;4.97;2.65;;;16.70;99.90;;;-144.05;82.64;125687.94;6163507;23;20001;-87
2022/06/25 04:02:38;;;;;;;7.05;2.53;;;16.80;99.90;;;-144.05;82.46;125687.94;6188211;23;20072;-88
2022/06/25 04:05:05;;;;;;;4.97;2.40;;;16.80;99.90;;;-144.05;82.25;125687.94;6163248;23;20009;-87
2022/06/25 04:07:31;;;;;;;5.50;2.60;;;16.80;99.90;;;-144.05;82.08;125687.94;6163018;23;20005;-87
2022/06/25 04:09:56;;;;;;;7.03;2.28;;;16.90;99.90;;;-144.05;81.70;125687.94;6165807;23;20013;-88
2022/06/25 04:12:23;;;;;;;7.03;2.10;;;16.90;99.90;;;-144.05;81.47;125687.94;6165102;23;20092;-88
2022/06/25 04:14:49;;;;;;;4.18;2.30;;;16.90;99.90;;;-144.05;81.42;125687.94;6189427;23;20087;-87
2022/06/25 04:17:15;;;;;;;3.25;2.30;;;17.00;99.90;;;-144.05;81.34;125687.94;6163888;23;20005;-88
2022/06/25 04:19:41;;;;;;;3.75;2.10;;;17.00;99.90;;;-144.05;81.14;125687.94;6163901;23;20007;-88
2022/06/25 04:22:12;;;;;;;3.20;2.13;;;17.10;99.90;;;-144.05;81.22;125687.94;6194986;23;20009;-87
2022/06/25 04:24:40;;;;;;;3.05;2.22;;;17.10;99.90;;;-144.05;80.92;125687.94;6172330;23;20407;-88
2022/06/25 04:27:07;;;;;;;4.22;2.22;;;17.10;99.90;;;-144.05;80.97;125687.94;6189484;23;20412;-88
2022/06/25 04:29:35;;;;;;;6.38;2.40;;;17.10;99.90;;;-144.05;80.42;125687.94;6163492;23;20088;-88
2022/06/25 04:32:01;;;;;;;3.72;2.15;;;17.20;99.90;;;-144.05;80.04;125687.94;6163389;23;20005;-87
2022/06/25 04:34:27;;;;;;;5.97;2.30;;;17.20;99.90;;;-144.05;79.70;125687.94;6163779;23;20015;-88
2022/06/25 04:36:53;;;;;;;7.53;2.13;;;17.30;99.90;;;-144.05;79.40;125687.94;6189189;23;20080;-90
2022/06/25 04:39:21;;;;;;;2.92;2.33;;;17.30;99.90;;;-144.05;79.55;125687.94;6163774;23;20009;-87
2022/06/25 04:41:48;;;;;;;2.70;2.03;;;17.40;99.90;;;-144.05;78.51;125687.94;6163540;23;20005;-86
2022/06/25 04:44:15;;;;;;;6.70;2.08;;;17.50;99.90;;;-144.05;78.13;125687.94;6190681;23;20012;-87
2022/06/25 04:46:42;;;;;;;3.72;1.95;;;17.60;99.90;;;-144.05;77.49;125687.94;6163362;23;20470;-87
2022/06/25 04:49:09;;;;;;;5.05;1.73;;;17.70;99.90;;;-144.05;77.16;125687.94;6163844;23;20262;-90
2022/06/25 04:51:36;;;;;;;4.13;2.20;;;17.80;99.90;;;-144.05;76.57;125687.94;6164665;23;20031;-88
2022/06/25 04:54:03;;;;;;;5.15;1.70;;;17.90;99.90;;;-144.05;75.86;125687.94;6165012;23;20009;-90
2022/06/25 04:56:30;;;;;;;6.43;2.13;;;18.10;99.90;;;-144.05;75.17;125687.94;6167161;23;20347;-91
2022/06/25 04:58:58;;;;;;;7.00;2.17;;;18.10;99.90;;;-144.05;74.27;125687.94;6173901;23;20024;-90
2022/06/25 05:01:24;;;;;;;4.55;2.25;;;18.20;99.90;;;-144.05;73.60;125687.94;6175344;23;19998;-90
2022/06/25 05:03:51;;;;;;;3.75;1.80;;;18.40;99.90;;;-144.05;72.98;125687.94;6183013;23;20029;-92
2022/06/25 05:06:17;;;;;;;4.53;2.13;;;18.40;99.90;;;-144.05;72.42;125687.94;6210129;23;19993;-89
2022/06/25 05:08:44;;;;;;;5.35;1.90;;;18.60;99.90;;;-144.05;71.87;125687.94;6177855;23;20446;-88
2022/06/25 05:11:10;;;;;;;6.88;1.80;;;18.70;99.90;;;-144.05;70.95;125687.94;6165595;23;20008;-87
2022/06/25 05:13:36;;;;;;;4.85;1.70;;;18.80;99.90;;;-144.05;70.47;125687.94;6166686;23;20403;-88
2022/06/25 05:16:02;;;;;;;5.13;1.80;;;18.90;99.90;;;-144.05;70.07;125687.94;6166500;23;20347;-89
2022/06/25 05:18:28;;;;;;;5.78;2.13;;;19.00;99.90;;;-144.05;70.19;125687.94;6191155;23;20100;-88
2022/06/25 05:20:54;;;;;;;5.20;1.98;;;19.10;99.90;;;-144.05;69.55;125687.94;6165540;23;20001;-88
2022/06/25 05:23:21;;;;;;;5.03;2.00;;;19.20;99.90;;;-144.05;68.85;125687.94;6165477;23;20016;-89
2022/06/25 05:25:51;;;;;;;4.90;2.17;;;19.40;99.90;;;-144.05;67.92;125687.94;6165996;23;20015;-89
2022/06/25 05:28:19;;;;;;;2.35;1.73;;;19.60;99.90;;;-144.05;68.35;125687.94;6190696;23;20012;-86
2022/06/25 05:30:45;;;;;;;6.75;1.98;;;19.70;99.90;;;-144.05;66.84;125687.94;6165418;23;20016;-90
2022/06/25 05:33:12;;;;;;;5.05;1.90;;;19.80;99.90;;;-144.05;66.90;125687.94;6165317;23;20009;-87
2022/06/25 05:35:40;;;;;;;2.95;1.65;;;19.90;99.90;;;-144.05;66.83;125687.94;6166440;23;20013;-88
2022/06/25 05:38:07;;;;;;;2.58;1.73;;;19.90;99.90;;;-144.05;65.54;125687.94;6165409;23;20462;-88
2022/06/25 05:40:35;;;;;;;2.40;1.77;;;20.10;99.90;;;-144.05;66.31;125687.94;6164601;23;20029;-89
2022/06/25 05:43:02;;;;;;;3.55;1.88;;;20.30;99.90;;;-144.05;64.74;125687.94;6189096;23;20035;-88
2022/06/25 05:45:29;;;;;;;3.78;1.83;;;20.40;99.90;;;-144.05;64.90;125687.94;6163476;23;20028;-89
2022/06/25 05:47:56;;;;;;;5.00;1.70;;;20.50;99.90;;;-144.05;63.05;125687.94;6168769;23;20071;-89
2022/06/25 05:50:22;;;;;;;3.63;1.75;;;20.70;99.90;;;-144.05;63.58;125687.94;6170403;23;20099;-88
2022/06/25 05:52:48;;;;;;;3.47;1.58;;;20.70;99.90;;;-144.05;63.64;125687.94;6163822;23;20020;-88
2022/06/25 05:55:13;;;;;;;5.45;1.60;;;20.80;99.90;;;-144.05;63.13;125687.94;6163321;23;20085;-88
2022/06/25 05:57:40;;;;;;;5.30;2.03;;;20.80;99.90;;;-144.05;62.94;125687.94;6189220;23;20005;-87
2022/06/25 06:00:08;;;;;;;3.40;1.60;;;20.90;99.90;;;-144.05;62.32;125687.94;6191602;23;20148;-87
2022/06/25 06:02:34;;;;;;;4.43;1.60;;;21.10;99.90;;;-144.05;61.18;125687.94;6165605;23;20050;-88
2022/06/25 06:05:02;;;;;;;4.22;1.77;;;21.30;99.90;;;-144.05;60.70;125687.94;6167686;23;20009;-86
2022/06/25 06:07:28;;;;;;;2.42;1.60;;;21.40;99.90;;;-144.05;60.20;125687.94;6168297;23;20669;-89
2022/06/25 06:09:54;;;;;;;4.65;1.70;;;21.50;99.90;;;-144.05;60.23;125687.94;6168428;23;20012;-87
2022/06/25 06:12:20;;;;;;;4.20;2.13;;;21.70;99.90;;;-144.05;59.99;125687.94;6166462;23;20346;-87
2022/06/25 06:14:46;;;;;;;5.15;1.77;;;21.80;99.90;;;-144.05;58.46;125687.94;6167914;23;20083;-89
2022/06/25 06:17:12;;;;;;;4.43;2.00;;;21.90;99.90;;;-144.05;58.27;125687.94;6194358;23;20001;-87
2022/06/25 06:19:38;;;;;;;3.80;2.00;;;21.90;99.90;;;-144.05;57.46;125687.94;6191746;23;20016;-88
2022/06/25 06:22:04;;;;;;;6.53;2.20;;;22.10;99.90;;;-144.05;58.22;125687.94;6167527;23;20005;-90
2022/06/25 06:24:32;;;;;;;4.45;2.10;;;22.10;99.90;;;-144.05;57.30;125687.94;6169372;23;20009;-87
2022/06/25 06:26:58;;;;;;;3.95;2.00;;;22.40;99.90;;;-144.05;55.74;125687.94;6193494;23;20428;-89
2022/06/25 06:29:24;;;;;;;4.93;2.20;;;22.50;99.90;;;-144.05;56.37;125687.94;6168929;23;20016;-90
2022/06/25 06:31:50;;;;;;;3.90;1.73;;;22.60;99.90;;;-144.05;55.00;125687.94;6195392;23;20027;-88
2022/06/25 06:34:16;;;;;;;5.63;1.95;;;22.90;99.90;;;-144.05;54.02;125687.94;6194244;23;20486;-89
2022/06/25 06:36:42;;;;;;;2.38;1.70;;;23.10;99.90;;;-144.05;53.68;125687.94;6184136;23;20445;-91
2022/06/25 06:39:10;;;;;;;3.60;1.75;;;23.10;99.90;;;-144.05;53.69;125687.94;6181509;23;20084;-89
2022/06/25 06:41:35;;;;;;;3.45;1.67;;;23.40;99.90;;;-144.05;52.71;125687.94;6188935;23;20005;-89
2022/06/25 06:44:02;;;;;;;5.50;1.50;;;23.30;99.90;;;-144.05;53.75;125687.94;6214490;23;20016;-89
2022/06/25 06:46:27;;;;;;;3.15;1.42;;;23.40;99.90;;;-144.05;52.89;125687.94;6203322;23;20013;-88
2022/06/25 06:48:53;;;;;;;5.03;1.42;;;23.60;99.90;;;-144.05;51.13;125687.94;6169453;23;20009;-84
2022/06/25 06:51:20;;;;;;;5.10;1.98;;;23.90;99.90;;;-144.05;51.98;125687.94;6170798;23;20005;-87
2022/06/25 06:53:46;;;;;;;2.60;1.73;;;23.70;99.90;;;-144.05;53.17;125687.94;6195664;23;20144;-89
2022/06/25 06:56:11;;;;;;;3.47;1.63;;;23.50;99.90;;;-144.05;51.94;125687.94;6191246;23;20099;-86
2022/06/25 06:58:37;;;;;;;5.28;2.03;;;23.70;99.90;;;-144.05;50.97;125687.94;6165871;23;20084;-86
2022/06/25 07:01:04;;;;;;;2.10;1.50;;;23.90;99.90;;;-144.05;51.60;125687.94;6167288;23;20005;-88
2022/06/25 07:03:30;;;;;;;3.97;1.83;;;24.10;99.90;;;-144.05;49.99;125687.94;6166873;23;20016;-86
2022/06/25 07:05:56;;;;;;;3.05;1.52;;;24.30;99.90;;;-144.05;48.47;125687.94;6194490;23;20009;-87
2022/06/25 07:08:22;;;;;;;5.75;1.48;;;24.60;99.90;;;-144.05;49.49;125687.94;6164972;23;20028;-85
2022/06/25 07:10:48;;;;;;;4.97;1.60;;;24.70;99.90;;;-144.05;48.58;125687.94;6189934;23;20024;-86
2022/06/25 07:13:14;;;;;;;4.70;1.50;;;24.60;99.90;;;-144.05;48.20;125687.94;6165557;23;20340;-86
2022/06/25 07:15:40;;;;;;;2.65;1.60;;;24.70;99.90;;;-144.05;48.10;125687.94;6190934;23;20327;-88
2022/06/25 07:18:07;;;;;;;3.58;1.85;;;24.80;99.90;;;-144.05;48.27;125687.94;6189827;23;20408;-87
2022/06/25 07:20:34;;;;;;;3.40;1.65;;;24.50;99.90;;;-144.05;49.09;125687.94;6163340;23;20087;-86
2022/06/25 07:23:00;;;;;;;4.18;1.38;;;24.40;99.90;;;-144.05;48.20;125687.94;6164434;23;20009;-87
2022/06/25 07:25:26;;;;;;;3.92;1.70;;;24.60;99.90;;;-144.05;47.14;125687.94;6164198;23;20009;-87
2022/06/25 07:27:52;;;;;;;4.28;1.33;;;25.00;99.90;;;-144.05;46.14;125687.94;6164084;23;20432;-86
2022/06/25 07:30:18;;;;;;;5.22;1.60;;;25.30;99.90;;;-144.05;44.68;125687.94;6164628;23;20016;-88
2022/06/25 07:32:44;;;;;;;4.03;1.85;;;25.70;99.90;;;-144.05;44.29;125687.94;6192379;23;20020;-87
2022/06/25 07:35:10;;;;;;;4.20;1.88;;;25.90;99.90;;;-144.05;45.31;125687.94;6164079;23;20005;-86
2022/06/25 07:37:36;;;;;;;4.28;1.58;;;25.60;99.90;;;-144.05;45.04;125687.94;6163348;23;20005;-87
2022/06/25 07:40:04;;;;;;;4.53;1.63;;;25.60;99.90;;;-144.05;44.52;125687.94;6188147;23;20011;-88
2022/06/25 07:42:31;;;;;;;3.63;1.40;;;25.60;99.90;;;-144.05;44.69;125687.94;6164280;23;20005;-86
2022/06/25 07:44:58;;;;;;;2.65;1.38;;;25.60;99.90;;;-144.05;44.84;125687.94;6174198;23;20009;-88
2022/06/25 07:47:24;;;;;;;3.70;1.40;;;25.90;99.90;;;-144.05;44.03;125687.94;6190171;23;20080;-87
2022/06/25 07:52:35;;;;;;;2.08;1.38;;;26.40;99.90;;;-144.05;43.39;125687.94;6208973;23;20020;-85
2022/06/25 07:55:03;;;;;;;2.72;1.20;;;26.40;99.90;;;-144.05;42.50;125687.94;6210337;23;20016;-87
2022/06/25 07:57:30;;;;;;;6.55;1.90;;;26.40;99.90;;;-144.05;43.44;125687.94;6182589;23;20013;-88
2022/06/25 07:59:59;;;;;;;2.72;1.38;;;26.20;99.90;;;-144.05;44.75;125687.94;6197544;23;20304;-90
2022/06/25 08:02:27;;;;;;;5.00;1.40;;;25.90;99.90;;;-144.05;44.71;125687.94;6185095;23;20005;-88
2022/06/25 08:04:53;;;;;;;5.80;1.40;;;25.20;99.90;;;-144.05;44.22;125687.94;6209440;23;19997;-87
2022/06/25 08:07:18;;;;;;;3.00;1.30;;;25.10;99.90;;;-144.05;45.18;125687.94;6210307;23;20045;-90
2022/06/25 08:09:44;;;;;;;2.95;1.48;;;25.10;99.90;;;-144.05;43.90;125687.94;6195193;23;20012;-89
2022/06/25 08:12:11;;;;;;;4.95;1.65;;;25.40;99.90;;;-144.05;43.85;125687.94;6191361;23;20009;-87
2022/06/25 08:14:36;;;;;;;3.63;1.60;;;25.60;99.90;;;-144.05;41.73;125687.94;6191713;23;20031;-88
2022/06/25 08:17:03;;;;;;;3.50;1.35;;;26.00;99.90;;;-144.05;41.08;125687.94;6189036;23;20380;-87
2022/06/25 08:19:29;;;;;;;2.97;1.52;;;26.40;99.90;;;-144.05;41.12;125687.94;6188445;23;20405;-87
2022/06/25 08:21:54;;;;;;;4.30;1.65;;;26.30;99.90;;;-144.05;41.53;125687.94;6189134;23;20001;-87
2022/06/25 08:24:20;;;;;;;3.22;1.20;;;26.20;99.90;;;-144.05;41.44;125687.94;6186174;23;20005;-88
2022/06/25 08:26:46;;;;;;;2.20;1.08;;;26.40;99.90;;;-144.05;40.58;125687.94;6162115;23;20371;-89
2022/06/25 08:29:12;;;;;;;2.63;1.25;;;26.50;99.90;;;-144.05;41.86;125687.94;6187457;23;20016;-89
2022/06/25 08:31:38;;;;;;;2.58;1.33;;;26.30;99.90;;;-144.05;41.18;125687.94;6188904;23;20024;-88
2022/06/25 08:34:04;;;;;;;6.25;1.50;;;26.40;99.90;;;-144.05;39.68;125687.94;6189034;23;20036;-87
2022/06/25 08:36:30;;;;;;;4.00;1.33;;;26.40;98.10;;;-144.05;40.50;125687.94;6164473;23;20005;-88
2022/06/25 08:38:56;;;;;;;3.35;1.45;;;26.00;98.90;;;-144.05;41.25;125687.94;6165733;23;20036;-88
2022/06/25 08:41:23;;;;;;;2.63;1.00;;;25.90;99.90;;;-144.05;39.74;125687.94;6192174;23;20001;-87
2022/06/25 08:43:49;;;;;;;2.90;1.10;;;26.30;99.40;;;-144.05;38.28;125687.94;6168019;23;20012;-88
2022/06/25 08:46:15;;;;;;;3.15;1.10;;;26.80;96.20;;;-144.05;38.77;125687.94;6191903;23;20104;-86
2022/06/25 08:48:49;;;;;;;4.57;1.05;;;27.30;97.20;;;-144.05;36.79;125687.94;6191098;23;20005;-89
2022/06/25 08:51:20;;;;;;;3.78;1.10;;;27.30;91.90;;;-144.05;37.47;125687.94;6164899;23;20028;-86
2022/06/25 08:53:48;;;;;;;3.70;1.17;;;27.20;91.90;;;-144.05;38.39;125687.94;6189802;23;20009;-88
2022/06/25 08:56:16;;;;;;;4.60;1.20;;;27.10;92.50;;;-144.05;37.26;125687.94;6188448;23;20005;-87
2022/06/25 08:58:44;;;;;;;6.40;1.95;;;27.20;90.70;;;-144.05;36.78;125687.94;6189730;23;20077;-89
2022/06/25 09:01:10;;;;;;;3.97;1.20;;;27.40;90.60;;;-144.05;37.75;125687.94;6190095;23;20088;-89
2022/06/25 09:03:39;;;;;;;3.30;1.13;;;27.30;90.30;;;-144.05;38.42;125687.94;6164328;23;20016;-87
2022/06/25 09:06:18;;;;;;;2.00;1.17;;;26.90;90.60;;;-144.05;37.49;125687.94;6168166;23;20025;-87
2022/06/25 09:09:13;;;;;;;3.75;1.10;;;26.80;90.60;;;-144.05;39.38;125687.94;6165309;23;20015;-89
2022/06/25 09:11:57;;;;;;;1.23;0.82;;;26.40;90.40;;;-144.05;38.47;125687.94;6163281;23;20390;-87
2022/06/25 09:14:31;;;;;;;4.78;1.30;;;26.00;91.40;;;-144.05;39.27;125687.94;6189022;23;20023;-87
2022/06/25 09:17:04;;;;;;;4.60;1.30;;;25.60;92.60;;;-144.05;39.25;125687.94;6188391;23;20005;-87
2022/06/25 09:19:47;;;;;;;2.00;1.02;;;25.80;93.20;;;-144.05;38.39;125687.94;6188835;23;20084;-89
2022/06/25 09:22:22;;;;;;;3.95;1.00;;;26.00;91.80;;;-144.05;39.25;125687.94;6188488;23;20008;-87
2022/06/25 09:24:57;;;;;;;3.10;1.30;;;26.30;94.50;;;-144.05;38.78;125687.94;6164133;23;20033;-88
2022/06/25 09:27:33;;;;;;;2.47;1.02;;;26.00;91.20;;;-144.05;39.70;125687.94;6163106;23;20357;-86
2022/06/25 09:30:12;;;;;;;4.20;1.25;;;25.70;92.70;;;-144.05;38.34;125687.94;6164288;23;20005;-87
2022/06/25 09:32:50;;;;;;;2.67;1.17;;;26.00;93.20;;;-144.05;36.96;125687.94;6164402;23;20013;-89
2022/06/25 09:35:43;;;;;;;3.70;1.15;;;26.60;91.40;;;-144.05;37.04;125687.94;6164644;23;20313;-87
2022/06/25 09:38:19;;;;;;;2.65;1.20;;;26.90;90.40;;;-144.05;38.17;125687.94;6191969;23;20008;-89
2022/06/25 09:40:59;;;;;;;6.03;1.10;;;26.30;89.70;;;-144.05;38.12;125687.94;6190047;23;20005;-86
2022/06/25 09:43:36;;;;;;;5.47;1.35;;;26.10;91.00;;;-144.05;38.81;125687.94;6190840;23;20008;-87
2022/06/25 09:46:07;;;;;;;3.65;1.23;;;26.00;91.60;;;-144.05;37.48;125687.94;6192121;23;20064;-88
2022/06/25 09:48:36;;;;;;;3.47;1.10;;;26.60;90.20;;;-144.05;36.56;125687.94;6191697;23;20005;-86
2022/06/25 09:51:22;;;;;;;1.40;1.10;;;26.80;86.10;;;-144.05;36.78;125687.94;6165061;23;20044;-87
2022/06/25 09:54:00;;;;;;;2.95;1.10;;;26.80;85.50;;;-144.05;37.30;125687.94;6192674;23;20009;-90
2022/06/25 09:56:33;;;;;;;3.30;1.38;;;27.10;87.40;;;-144.05;36.28;125687.94;6193362;23;20008;-89
2022/06/25 09:59:00;;;;;;;3.45;1.10;;;27.60;82.90;;;-144.05;35.23;125687.94;6166309;23;20009;-88
2022/06/25 10:01:32;;;;;;;4.15;0.98;;;28.20;83.80;;;-144.05;34.72;125687.94;6165875;23;20005;-90
2022/06/25 10:04:04;;;;;;;2.92;1.10;;;28.20;79.30;;;-144.05;35.61;125687.94;6192126;23;20050;-90
2022/06/25 10:06:41;;;;;;;4.57;1.08;;;27.90;82.00;;;-144.05;36.94;125687.94;6199194;23;20020;-86
2022/06/25 10:09:09;;;;;;;2.13;1.08;;;27.00;81.50;;;-144.05;36.95;125687.94;6176656;23;20009;-89
2022/06/25 10:11:37;;;;;;;2.55;1.23;;;26.50;82.30;;;-144.05;38.18;125687.94;6169512;23;20371;-87
2022/06/25 10:14:04;;;;;;;4.40;0.90;;;25.90;85.10;;;-144.05;37.34;125687.94;6194486;23;20013;-88